sensor_id;sensor_type;location;lat;lon;timestamp;P1;durP1;ratioP1;P2;durP2;ratioP2
54193;SDS011;40102;50.906;6.972;2023-07-13T00:02:04;1.83;;;0.73;;
54193;SDS011;40102;50.906;6.972;2023-07-13T00:04:30;1.80;;;0.70;;
54193;SDS011;40102;50.906;6.972;2023-07-13T00:06:55;3.08;;;0.73;;
54193;SDS011;40102;50.906;6.972;2023-07-13T00:09:21;5.30;;;0.80;;
54193;SDS011;40102;50.906;6.972;2023-07-13T00:11:49;1.95;;;0.60;;
54193;SDS011;40102;50.906;6.972;2023-07-13T00:16:42;2.30;;;0.70;;
54193;SDS011;40102;50.906;6.972;2023-07-13T00:19:11;2.60;;;0.70;;
54193;SDS011;40102;50.906;6.972;2023-07-13T00:21:37;3.28;;;0.80;;
54193;SDS011;40102;50.906;6.972;2023-07-13T00:24:03;3.30;;;0.88;;
54193;SDS011;40102;50.906;6.972;2023-07-13T00:26:30;1.95;;;0.60;;
54193;SDS011;40102;50.906;6.972;2023-07-13T00:39:08;2.42;;;0.80;;
54193;SDS011;40102;50.906;6.972;2023-07-13T00:41:33;1.33;;;0.70;;
54193;SDS011;40102;50.906;6.972;2023-07-13T00:43:59;1.85;;;0.80;;
54193;SDS011;40102;50.906;6.972;2023-07-13T00:46:27;1.35;;;0.70;;
54193;SDS011;40102;50.906;6.972;2023-07-13T00:48:54;2.03;;;0.80;;
54193;SDS011;40102;50.906;6.972;2023-07-13T00:51:26;1.58;;;0.70;;
54193;SDS011;40102;50.906;6.972;2023-07-13T00:53:56;3.95;;;0.75;;
54193;SDS011;40102;50.906;6.972;2023-07-13T00:56:24;1.53;;;0.80;;
54193;SDS011;40102;50.906;6.972;2023-07-13T00:58:50;1.65;;;0.77;;
54193;SDS011;40102;50.906;6.972;2023-07-13T01:01:15;1.20;;;0.60;;
54193;SDS011;40102;50.906;6.972;2023-07-13T01:03:40;2.15;;;0.70;;
54193;SDS011;40102;50.906;6.972;2023-07-13T01:06:06;2.20;;;0.90;;
54193;SDS011;40102;50.906;6.972;2023-07-13T01:08:32;1.83;;;0.80;;
54193;SDS011;40102;50.906;6.972;2023-07-13T01:10:58;1.30;;;0.60;;
54193;SDS011;40102;50.906;6.972;2023-07-13T01:13:23;3.38;;;0.70;;
54193;SDS011;40102;50.906;6.972;2023-07-13T01:15:49;2.20;;;0.70;;
54193;SDS011;40102;50.906;6.972;2023-07-13T01:18:20;1.50;;;0.77;;
54193;SDS011;40102;50.906;6.972;2023-07-13T01:20:50;2.28;;;0.90;;
54193;SDS011;40102;50.906;6.972;2023-07-13T01:23:16;2.10;;;0.75;;
54193;SDS011;40102;50.906;6.972;2023-07-13T01:25:41;6.15;;;0.80;;
54193;SDS011;40102;50.906;6.972;2023-07-13T01:28:07;3.47;;;0.90;;
54193;SDS011;40102;50.906;6.972;2023-07-13T01:30:34;1.70;;;0.68;;
54193;SDS011;40102;50.906;6.972;2023-07-13T01:33:00;3.42;;;1.17;;
54193;SDS011;40102;50.906;6.972;2023-07-13T01:35:26;1.67;;;0.70;;
54193;SDS011;40102;50.906;6.972;2023-07-13T01:37:52;2.50;;;0.75;;
54193;SDS011;40102;50.906;6.972;2023-07-13T01:40:17;2.40;;;0.70;;
54193;SDS011;40102;50.906;6.972;2023-07-13T01:42:43;3.65;;;0.93;;
54193;SDS011;40102;50.906;6.972;2023-07-13T01:45:09;3.03;;;1.00;;
54193;SDS011;40102;50.906;6.972;2023-07-13T01:47:34;3.20;;;0.88;;
54193;SDS011;40102;50.906;6.972;2023-07-13T01:50:00;2.25;;;0.73;;
54193;SDS011;40102;50.906;6.972;2023-07-13T01:52:25;2.40;;;0.60;;
54193;SDS011;40102;50.906;6.972;2023-07-13T01:54:51;1.63;;;0.60;;
54193;SDS011;40102;50.906;6.972;2023-07-13T01:57:16;2.35;;;0.68;;
54193;SDS011;40102;50.906;6.972;2023-07-13T01:59:42;3.42;;;0.75;;
54193;SDS011;40102;50.906;6.972;2023-07-13T02:02:07;1.73;;;0.70;;
54193;SDS011;40102;50.906;6.972;2023-07-13T02:04:33;1.17;;;0.70;;
54193;SDS011;40102;50.906;6.972;2023-07-13T02:06:58;3.17;;;0.80;;
54193;SDS011;40102;50.906;6.972;2023-07-13T02:09:24;3.03;;;1.20;;
54193;SDS011;40102;50.906;6.972;2023-07-13T02:11:49;1.48;;;0.55;;
54193;SDS011;40102;50.906;6.972;2023-07-13T02:14:14;2.72;;;0.80;;
54193;SDS011;40102;50.906;6.972;2023-07-13T02:16:40;1.20;;;0.52;;
54193;SDS011;40102;50.906;6.972;2023-07-13T02:19:06;1.52;;;0.60;;
54193;SDS011;40102;50.906;6.972;2023-07-13T02:21:32;2.33;;;0.70;;
54193;SDS011;40102;50.906;6.972;2023-07-13T02:23:57;1.80;;;0.65;;
54193;SDS011;40102;50.906;6.972;2023-07-13T02:26:22;2.38;;;0.80;;
54193;SDS011;40102;50.906;6.972;2023-07-13T02:28:49;1.92;;;0.57;;
54193;SDS011;40102;50.906;6.972;2023-07-13T02:31:15;2.35;;;1.20;;
54193;SDS011;40102;50.906;6.972;2023-07-13T02:33:41;2.40;;;0.90;;
54193;SDS011;40102;50.906;6.972;2023-07-13T02:36:07;3.15;;;0.50;;
54193;SDS011;40102;50.906;6.972;2023-07-13T02:38:32;1.63;;;0.68;;
54193;SDS011;40102;50.906;6.972;2023-07-13T02:40:59;1.33;;;0.70;;
54193;SDS011;40102;50.906;6.972;2023-07-13T02:43:25;2.72;;;0.60;;
54193;SDS011;40102;50.906;6.972;2023-07-13T02:45:50;2.13;;;0.60;;
54193;SDS011;40102;50.906;6.972;2023-07-13T02:48:16;1.17;;;0.63;;
54193;SDS011;40102;50.906;6.972;2023-07-13T02:50:41;2.15;;;0.70;;
54193;SDS011;40102;50.906;6.972;2023-07-13T02:53:08;1.80;;;0.60;;
54193;SDS011;40102;50.906;6.972;2023-07-13T02:55:34;2.42;;;0.80;;
54193;SDS011;40102;50.906;6.972;2023-07-13T02:57:59;2.25;;;0.73;;
54193;SDS011;40102;50.906;6.972;2023-07-13T03:00:24;1.73;;;0.70;;
54193;SDS011;40102;50.906;6.972;2023-07-13T03:02:50;1.45;;;0.65;;
54193;SDS011;40102;50.906;6.972;2023-07-13T03:05:15;2.40;;;0.70;;
54193;SDS011;40102;50.906;6.972;2023-07-13T03:07:41;3.25;;;0.85;;
54193;SDS011;40102;50.906;6.972;2023-07-13T03:10:07;1.08;;;0.60;;
54193;SDS011;40102;50.906;6.972;2023-07-13T03:12:35;2.05;;;0.60;;
54193;SDS011;40102;50.906;6.972;2023-07-13T03:15:01;1.20;;;0.60;;
54193;SDS011;40102;50.906;6.972;2023-07-13T03:17:26;2.65;;;0.60;;
54193;SDS011;40102;50.906;6.972;2023-07-13T03:19:51;2.78;;;0.70;;
54193;SDS011;40102;50.906;6.972;2023-07-13T03:22:17;1.70;;;0.60;;
54193;SDS011;40102;50.906;6.972;2023-07-13T03:24:43;3.50;;;0.88;;
54193;SDS011;40102;50.906;6.972;2023-07-13T03:27:09;1.08;;;0.60;;
54193;SDS011;40102;50.906;6.972;2023-07-13T03:29:34;1.95;;;0.70;;
54193;SDS011;40102;50.906;6.972;2023-07-13T03:31:59;0.75;;;0.60;;
54193;SDS011;40102;50.906;6.972;2023-07-13T03:34:25;1.60;;;0.70;;
54193;SDS011;40102;50.906;6.972;2023-07-13T03:36:50;3.58;;;0.90;;
54193;SDS011;40102;50.906;6.972;2023-07-13T03:39:18;1.27;;;0.82;;
54193;SDS011;40102;50.906;6.972;2023-07-13T03:41:43;2.55;;;0.70;;
54193;SDS011;40102;50.906;6.972;2023-07-13T03:44:09;3.03;;;0.70;;
54193;SDS011;40102;50.906;6.972;2023-07-13T03:46:34;2.85;;;0.70;;
54193;SDS011;40102;50.906;6.972;2023-07-13T03:48:59;0.88;;;0.55;;
54193;SDS011;40102;50.906;6.972;2023-07-13T03:51:26;1.80;;;0.90;;
54193;SDS011;40102;50.906;6.972;2023-07-13T03:53:51;1.85;;;0.80;;
54193;SDS011;40102;50.906;6.972;2023-07-13T03:56:17;1.55;;;0.80;;
54193;SDS011;40102;50.906;6.972;2023-07-13T03:58:44;2.35;;;0.82;;
54193;SDS011;40102;50.906;6.972;2023-07-13T04:01:11;2.08;;;0.70;;
54193;SDS011;40102;50.906;6.972;2023-07-13T04:03:38;0.93;;;0.60;;
54193;SDS011;40102;50.906;6.972;2023-07-13T04:06:14;2.17;;;0.80;;
54193;SDS011;40102;50.906;6.972;2023-07-13T04:08:46;2.13;;;1.00;;
54193;SDS011;40102;50.906;6.972;2023-07-13T04:11:13;1.90;;;0.75;;
54193;SDS011;40102;50.906;6.972;2023-07-13T04:13:38;1.73;;;0.70;;
54193;SDS011;40102;50.906;6.972;2023-07-13T04:16:03;1.65;;;0.77;;
54193;SDS011;40102;50.906;6.972;2023-07-13T04:18:29;1.75;;;0.75;;
54193;SDS011;40102;50.906;6.972;2023-07-13T04:20:54;1.58;;;0.60;;
54193;SDS011;40102;50.906;6.972;2023-07-13T04:23:20;1.95;;;0.75;;
54193;SDS011;40102;50.906;6.972;2023-07-13T04:25:47;3.20;;;0.80;;
54193;SDS011;40102;50.906;6.972;2023-07-13T04:28:14;1.85;;;0.70;;
54193;SDS011;40102;50.906;6.972;2023-07-13T04:30:40;2.08;;;0.80;;
54193;SDS011;40102;50.906;6.972;2023-07-13T04:33:05;2.20;;;0.73;;
54193;SDS011;40102;50.906;6.972;2023-07-13T04:35:31;1.50;;;0.55;;
54193;SDS011;40102;50.906;6.972;2023-07-13T04:37:56;2.35;;;0.80;;
54193;SDS011;40102;50.906;6.972;2023-07-13T04:40:22;2.88;;;1.08;;
54193;SDS011;40102;50.906;6.972;2023-07-13T04:42:47;2.38;;;1.00;;
54193;SDS011;40102;50.906;6.972;2023-07-13T04:45:13;4.75;;;0.90;;
54193;SDS011;40102;50.906;6.972;2023-07-13T04:47:39;2.50;;;0.90;;
54193;SDS011;40102;50.906;6.972;2023-07-13T04:50:06;1.23;;;0.70;;
54193;SDS011;40102;50.906;6.972;2023-07-13T04:52:32;1.75;;;0.70;;
54193;SDS011;40102;50.906;6.972;2023-07-13T04:54:58;2.22;;;0.70;;
54193;SDS011;40102;50.906;6.972;2023-07-13T04:57:25;5.07;;;1.10;;
54193;SDS011;40102;50.906;6.972;2023-07-13T04:59:50;1.75;;;0.70;;
54193;SDS011;40102;50.906;6.972;2023-07-13T05:02:15;2.58;;;0.90;;
54193;SDS011;40102;50.906;6.972;2023-07-13T05:04:41;2.75;;;0.82;;
54193;SDS011;40102;50.906;6.972;2023-07-13T05:07:06;2.40;;;0.77;;
54193;SDS011;40102;50.906;6.972;2023-07-13T05:09:32;1.92;;;0.95;;
54193;SDS011;40102;50.906;6.972;2023-07-13T05:11:57;3.47;;;1.10;;
54193;SDS011;40102;50.906;6.972;2023-07-13T05:14:23;1.88;;;0.73;;
54193;SDS011;40102;50.906;6.972;2023-07-13T05:16:48;4.07;;;0.85;;
54193;SDS011;40102;50.906;6.972;2023-07-13T05:19:13;2.53;;;0.82;;
54193;SDS011;40102;50.906;6.972;2023-07-13T05:21:39;2.05;;;0.80;;
54193;SDS011;40102;50.906;6.972;2023-07-13T05:24:06;4.18;;;0.88;;
54193;SDS011;40102;50.906;6.972;2023-07-13T05:26:31;4.13;;;0.90;;
54193;SDS011;40102;50.906;6.972;2023-07-13T05:28:57;3.22;;;1.02;;
54193;SDS011;40102;50.906;6.972;2023-07-13T05:31:22;5.20;;;1.40;;
54193;SDS011;40102;50.906;6.972;2023-07-13T05:33:48;3.03;;;1.00;;
54193;SDS011;40102;50.906;6.972;2023-07-13T05:36:13;3.78;;;0.98;;
54193;SDS011;40102;50.906;6.972;2023-07-13T05:38:39;3.58;;;1.17;;
54193;SDS011;40102;50.906;6.972;2023-07-13T05:41:05;4.13;;;1.00;;
54193;SDS011;40102;50.906;6.972;2023-07-13T05:43:30;7.50;;;1.17;;
54193;SDS011;40102;50.906;6.972;2023-07-13T05:45:56;6.03;;;1.17;;
54193;SDS011;40102;50.906;6.972;2023-07-13T05:48:22;2.85;;;0.93;;
54193;SDS011;40102;50.906;6.972;2023-07-13T05:50:48;2.25;;;0.90;;
54193;SDS011;40102;50.906;6.972;2023-07-13T05:53:14;2.80;;;0.90;;
54193;SDS011;40102;50.906;6.972;2023-07-13T05:55:43;3.85;;;1.10;;
54193;SDS011;40102;50.906;6.972;2023-07-13T05:58:12;4.88;;;1.00;;
54193;SDS011;40102;50.906;6.972;2023-07-13T06:00:38;4.10;;;1.10;;
54193;SDS011;40102;50.906;6.972;2023-07-13T06:03:05;2.22;;;0.93;;
54193;SDS011;40102;50.906;6.972;2023-07-13T06:05:32;3.15;;;0.70;;
54193;SDS011;40102;50.906;6.972;2023-07-13T06:07:59;4.70;;;0.98;;
54193;SDS011;40102;50.906;6.972;2023-07-13T06:10:25;5.10;;;1.20;;
54193;SDS011;40102;50.906;6.972;2023-07-13T06:12:50;4.30;;;1.13;;
54193;SDS011;40102;50.906;6.972;2023-07-13T06:15:16;5.25;;;1.08;;
54193;SDS011;40102;50.906;6.972;2023-07-13T06:17:41;6.78;;;1.05;;
54193;SDS011;40102;50.906;6.972;2023-07-13T06:20:07;6.30;;;1.30;;
54193;SDS011;40102;50.906;6.972;2023-07-13T06:22:32;3.42;;;0.93;;
54193;SDS011;40102;50.906;6.972;2023-07-13T06:24:58;4.18;;;1.13;;
54193;SDS011;40102;50.906;6.972;2023-07-13T06:27:23;3.65;;;1.15;;
54193;SDS011;40102;50.906;6.972;2023-07-13T06:29:49;5.15;;;0.90;;
54193;SDS011;40102;50.906;6.972;2023-07-13T06:32:14;4.25;;;1.13;;
54193;SDS011;40102;50.906;6.972;2023-07-13T06:34:40;3.67;;;1.00;;
54193;SDS011;40102;50.906;6.972;2023-07-13T06:37:05;4.63;;;1.15;;
54193;SDS011;40102;50.906;6.972;2023-07-13T06:39:31;5.10;;;1.55;;
54193;SDS011;40102;50.906;6.972;2023-07-13T06:41:57;3.72;;;1.02;;
54193;SDS011;40102;50.906;6.972;2023-07-13T06:44:22;3.20;;;0.98;;
54193;SDS011;40102;50.906;6.972;2023-07-13T06:46:47;3.97;;;1.30;;
54193;SDS011;40102;50.906;6.972;2023-07-13T06:49:13;8.90;;;1.58;;
54193;SDS011;40102;50.906;6.972;2023-07-13T06:51:38;4.70;;;1.20;;
54193;SDS011;40102;50.906;6.972;2023-07-13T06:54:03;5.53;;;1.05;;
54193;SDS011;40102;50.906;6.972;2023-07-13T06:56:29;3.92;;;1.00;;
54193;SDS011;40102;50.906;6.972;2023-07-13T06:58:54;6.30;;;1.30;;
54193;SDS011;40102;50.906;6.972;2023-07-13T07:01:20;5.55;;;1.95;;
54193;SDS011;40102;50.906;6.972;2023-07-13T07:03:45;3.88;;;1.17;;
54193;SDS011;40102;50.906;6.972;2023-07-13T07:06:13;4.63;;;1.20;;
54193;SDS011;40102;50.906;6.972;2023-07-13T07:08:41;5.10;;;1.00;;
54193;SDS011;40102;50.906;6.972;2023-07-13T07:11:08;4.50;;;1.40;;
54193;SDS011;40102;50.906;6.972;2023-07-13T07:13:36;5.20;;;1.20;;
54193;SDS011;40102;50.906;6.972;2023-07-13T07:16:01;3.42;;;1.17;;
54193;SDS011;40102;50.906;6.972;2023-07-13T07:18:27;4.38;;;1.27;;
54193;SDS011;40102;50.906;6.972;2023-07-13T07:20:52;5.13;;;1.30;;
54193;SDS011;40102;50.906;6.972;2023-07-13T07:23:17;4.03;;;1.17;;
54193;SDS011;40102;50.906;6.972;2023-07-13T07:25:44;7.43;;;1.10;;
54193;SDS011;40102;50.906;6.972;2023-07-13T07:28:09;4.22;;;1.17;;
54193;SDS011;40102;50.906;6.972;2023-07-13T07:30:34;5.03;;;1.10;;
54193;SDS011;40102;50.906;6.972;2023-07-13T07:33:00;5.72;;;1.42;;
54193;SDS011;40102;50.906;6.972;2023-07-13T07:35:26;5.93;;;1.20;;
54193;SDS011;40102;50.906;6.972;2023-07-13T07:37:51;6.60;;;1.23;;
54193;SDS011;40102;50.906;6.972;2023-07-13T07:40:17;5.38;;;1.65;;
54193;SDS011;40102;50.906;6.972;2023-07-13T07:42:43;3.70;;;1.23;;
54193;SDS011;40102;50.906;6.972;2023-07-13T07:45:08;5.70;;;1.40;;
54193;SDS011;40102;50.906;6.972;2023-07-13T07:47:36;5.75;;;1.50;;
54193;SDS011;40102;50.906;6.972;2023-07-13T07:50:02;9.07;;;1.40;;
54193;SDS011;40102;50.906;6.972;2023-07-13T07:52:27;9.95;;;1.40;;
54193;SDS011;40102;50.906;6.972;2023-07-13T07:54:53;7.03;;;1.30;;
54193;SDS011;40102;50.906;6.972;2023-07-13T07:57:18;5.65;;;1.27;;
54193;SDS011;40102;50.906;6.972;2023-07-13T07:59:43;5.72;;;1.35;;
54193;SDS011;40102;50.906;6.972;2023-07-13T08:02:09;4.68;;;1.30;;
54193;SDS011;40102;50.906;6.972;2023-07-13T08:04:35;6.30;;;1.33;;
54193;SDS011;40102;50.906;6.972;2023-07-13T08:07:01;4.80;;;1.60;;
54193;SDS011;40102;50.906;6.972;2023-07-13T08:09:27;6.68;;;1.33;;
54193;SDS011;40102;50.906;6.972;2023-07-13T08:11:53;3.20;;;1.15;;
54193;SDS011;40102;50.906;6.972;2023-07-13T08:14:19;4.38;;;1.20;;
54193;SDS011;40102;50.906;6.972;2023-07-13T08:16:45;3.58;;;1.13;;
54193;SDS011;40102;50.906;6.972;2023-07-13T08:19:10;5.10;;;1.30;;
54193;SDS011;40102;50.906;6.972;2023-07-13T08:21:36;3.78;;;1.17;;
54193;SDS011;40102;50.906;6.972;2023-07-13T08:24:02;3.80;;;1.33;;
54193;SDS011;40102;50.906;6.972;2023-07-13T08:26:27;5.47;;;1.13;;
54193;SDS011;40102;50.906;6.972;2023-07-13T08:28:52;2.03;;;0.90;;
54193;SDS011;40102;50.906;6.972;2023-07-13T08:31:18;3.83;;;1.20;;
54193;SDS011;40102;50.906;6.972;2023-07-13T08:33:43;5.63;;;1.27;;
54193;SDS011;40102;50.906;6.972;2023-07-13T08:36:08;5.28;;;1.35;;
54193;SDS011;40102;50.906;6.972;2023-07-13T08:38:34;4.38;;;1.17;;
54193;SDS011;40102;50.906;6.972;2023-07-13T08:40:59;4.90;;;0.90;;
54193;SDS011;40102;50.906;6.972;2023-07-13T08:43:35;3.95;;;1.38;;
54193;SDS011;40102;50.906;6.972;2023-07-13T08:46:07;5.60;;;1.20;;
54193;SDS011;40102;50.906;6.972;2023-07-13T08:48:41;4.90;;;1.40;;
54193;SDS011;40102;50.906;6.972;2023-07-13T08:51:24;7.78;;;1.48;;
54193;SDS011;40102;50.906;6.972;2023-07-13T08:54:02;5.30;;;1.10;;
54193;SDS011;40102;50.906;6.972;2023-07-13T08:56:30;3.30;;;1.20;;
54193;SDS011;40102;50.906;6.972;2023-07-13T08:59:00;4.30;;;0.98;;
54193;SDS011;40102;50.906;6.972;2023-07-13T09:01:43;3.53;;;1.30;;
54193;SDS011;40102;50.906;6.972;2023-07-13T09:04:21;3.08;;;1.02;;
54193;SDS011;40102;50.906;6.972;2023-07-13T09:09:26;3.33;;;1.17;;
54193;SDS011;40102;50.906;6.972;2023-07-13T09:12:05;2.63;;;0.82;;
54193;SDS011;40102;50.906;6.972;2023-07-13T09:14:41;2.65;;;1.00;;
54193;SDS011;40102;50.906;6.972;2023-07-13T09:17:17;4.25;;;1.20;;
54193;SDS011;40102;50.906;6.972;2023-07-13T09:19:56;6.18;;;1.30;;
54193;SDS011;40102;50.906;6.972;2023-07-13T09:22:25;4.18;;;0.90;;
54193;SDS011;40102;50.906;6.972;2023-07-13T09:25:39;5.22;;;1.30;;
54193;SDS011;40102;50.906;6.972;2023-07-13T09:27:52;3.20;;;1.10;;
54193;SDS011;40102;50.906;6.972;2023-07-13T09:30:22;2.70;;;1.10;;
54193;SDS011;40102;50.906;6.972;2023-07-13T09:32:53;3.90;;;1.00;;
54193;SDS011;40102;50.906;6.972;2023-07-13T09:35:20;4.90;;;1.10;;
54193;SDS011;40102;50.906;6.972;2023-07-13T09:37:55;5.25;;;1.10;;
54193;SDS011;40102;50.906;6.972;2023-07-13T09:40:24;2.88;;;1.05;;
54193;SDS011;40102;50.906;6.972;2023-07-13T09:43:00;2.40;;;1.00;;
54193;SDS011;40102;50.906;6.972;2023-07-13T09:45:27;6.25;;;1.25;;
54193;SDS011;40102;50.906;6.972;2023-07-13T09:48:04;3.22;;;0.90;;
54193;SDS011;40102;50.906;6.972;2023-07-13T09:50:36;5.45;;;1.20;;
54193;SDS011;40102;50.906;6.972;2023-07-13T09:53:02;2.53;;;1.05;;
54193;SDS011;40102;50.906;6.972;2023-07-13T09:55:31;5.70;;;1.10;;
54193;SDS011;40102;50.906;6.972;2023-07-13T09:58:09;4.40;;;0.98;;
54193;SDS011;40102;50.906;6.972;2023-07-13T10:00:37;3.20;;;1.10;;
54193;SDS011;40102;50.906;6.972;2023-07-13T10:03:09;3.80;;;1.00;;
54193;SDS011;40102;50.906;6.972;2023-07-13T10:05:43;3.30;;;0.90;;
54193;SDS011;40102;50.906;6.972;2023-07-13T10:08:26;3.33;;;0.93;;
54193;SDS011;40102;50.906;6.972;2023-07-13T10:13:40;3.00;;;0.90;;
54193;SDS011;40102;50.906;6.972;2023-07-13T10:16:09;3.28;;;0.90;;
54193;SDS011;40102;50.906;6.972;2023-07-13T10:18:44;3.38;;;1.10;;
54193;SDS011;40102;50.906;6.972;2023-07-13T10:21:20;2.85;;;1.20;;
54193;SDS011;40102;50.906;6.972;2023-07-13T10:23:48;3.60;;;1.00;;
54193;SDS011;40102;50.906;6.972;2023-07-13T10:26:23;3.85;;;1.10;;
54193;SDS011;40102;50.906;6.972;2023-07-13T10:28:52;5.43;;;1.38;;
54193;SDS011;40102;50.906;6.972;2023-07-13T10:31:21;3.42;;;1.20;;
54193;SDS011;40102;50.906;6.972;2023-07-13T10:33:48;4.88;;;1.10;;
54193;SDS011;40102;50.906;6.972;2023-07-13T10:36:20;3.55;;;1.02;;
54193;SDS011;40102;50.906;6.972;2023-07-13T10:38:57;2.67;;;0.90;;
54193;SDS011;40102;50.906;6.972;2023-07-13T10:41:26;6.18;;;0.90;;
54193;SDS011;40102;50.906;6.972;2023-07-13T10:43:55;7.05;;;1.10;;
54193;SDS011;40102;50.906;6.972;2023-07-13T10:46:22;1.92;;;0.93;;
54193;SDS011;40102;50.906;6.972;2023-07-13T10:48:55;2.70;;;0.85;;
54193;SDS011;40102;50.906;6.972;2023-07-13T10:56:48;3.55;;;1.00;;
54193;SDS011;40102;50.906;6.972;2023-07-13T10:59:34;4.60;;;1.00;;
54193;SDS011;40102;50.906;6.972;2023-07-13T11:04:31;3.08;;;1.08;;
54193;SDS011;40102;50.906;6.972;2023-07-13T11:07:51;2.08;;;1.05;;
54193;SDS011;40102;50.906;6.972;2023-07-13T11:10:47;4.68;;;1.20;;
54193;SDS011;40102;50.906;6.972;2023-07-13T11:13:35;1.35;;;0.90;;
54193;SDS011;40102;50.906;6.972;2023-07-13T11:16:13;4.88;;;1.15;;
54193;SDS011;40102;50.906;6.972;2023-07-13T11:18:45;4.45;;;1.02;;
54193;SDS011;40102;50.906;6.972;2023-07-13T11:21:18;2.08;;;1.05;;
54193;SDS011;40102;50.906;6.972;2023-07-13T11:23:51;4.68;;;0.93;;
54193;SDS011;40102;50.906;6.972;2023-07-13T11:31:43;3.85;;;1.00;;
54193;SDS011;40102;50.906;6.972;2023-07-13T11:34:15;8.05;;;1.17;;
54193;SDS011;40102;50.906;6.972;2023-07-13T11:36:46;2.53;;;0.82;;
54193;SDS011;40102;50.906;6.972;2023-07-13T11:42:13;4.00;;;1.02;;
54193;SDS011;40102;50.906;6.972;2023-07-13T11:44:42;3.20;;;1.25;;
54193;SDS011;40102;50.906;6.972;2023-07-13T11:47:20;2.10;;;0.95;;
54193;SDS011;40102;50.906;6.972;2023-07-13T11:49:52;3.75;;;1.00;;
54193;SDS011;40102;50.906;6.972;2023-07-13T11:52:27;2.38;;;1.20;;
54193;SDS011;40102;50.906;6.972;2023-07-13T11:54:59;2.85;;;1.00;;
54193;SDS011;40102;50.906;6.972;2023-07-13T11:57:33;3.28;;;0.90;;
54193;SDS011;40102;50.906;6.972;2023-07-13T12:00:12;2.97;;;1.10;;
54193;SDS011;40102;50.906;6.972;2023-07-13T12:02:40;3.65;;;1.20;;
54193;SDS011;40102;50.906;6.972;2023-07-13T12:05:13;3.40;;;1.37;;
54193;SDS011;40102;50.906;6.972;2023-07-13T12:07:40;3.65;;;1.20;;
54193;SDS011;40102;50.906;6.972;2023-07-13T12:12:37;2.42;;;1.00;;
54193;SDS011;40102;50.906;6.972;2023-07-13T12:15:08;2.63;;;0.80;;
54193;SDS011;40102;50.906;6.972;2023-07-13T12:17:36;3.53;;;0.98;;
54193;SDS011;40102;50.906;6.972;2023-07-13T12:20:03;4.95;;;1.17;;
54193;SDS011;40102;50.906;6.972;2023-07-13T12:22:39;2.00;;;0.90;;
54193;SDS011;40102;50.906;6.972;2023-07-13T12:25:05;2.92;;;1.10;;
54193;SDS011;40102;50.906;6.972;2023-07-13T12:27:31;2.65;;;1.02;;
54193;SDS011;40102;50.906;6.972;2023-07-13T12:30:02;2.50;;;0.95;;
54193;SDS011;40102;50.906;6.972;2023-07-13T12:32:30;3.05;;;0.85;;
54193;SDS011;40102;50.906;6.972;2023-07-13T12:35:04;4.63;;;1.05;;
54193;SDS011;40102;50.906;6.972;2023-07-13T12:37:41;3.67;;;1.08;;
54193;SDS011;40102;50.906;6.972;2023-07-13T12:40:15;4.03;;;1.40;;
54193;SDS011;40102;50.906;6.972;2023-07-13T12:42:44;3.80;;;1.13;;
54193;SDS011;40102;50.906;6.972;2023-07-13T12:45:23;3.10;;;0.98;;
54193;SDS011;40102;50.906;6.972;2023-07-13T12:47:54;6.35;;;1.33;;
54193;SDS011;40102;50.906;6.972;2023-07-13T12:50:30;2.50;;;0.90;;
54193;SDS011;40102;50.906;6.972;2023-07-13T12:53:02;4.65;;;1.17;;
54193;SDS011;40102;50.906;6.972;2023-07-13T12:55:32;2.78;;;1.13;;
54193;SDS011;40102;50.906;6.972;2023-07-13T12:58:09;3.83;;;0.93;;
54193;SDS011;40102;50.906;6.972;2023-07-13T13:00:41;2.47;;;0.80;;
54193;SDS011;40102;50.906;6.972;2023-07-13T13:05:48;3.90;;;1.00;;
54193;SDS011;40102;50.906;6.972;2023-07-13T13:08:14;2.85;;;0.90;;
54193;SDS011;40102;50.906;6.972;2023-07-13T13:10:40;3.90;;;0.77;;
54193;SDS011;40102;50.906;6.972;2023-07-13T13:13:08;4.95;;;0.90;;
54193;SDS011;40102;50.906;6.972;2023-07-13T13:15:33;2.28;;;0.70;;
54193;SDS011;40102;50.906;6.972;2023-07-13T13:18:00;1.63;;;0.70;;
54193;SDS011;40102;50.906;6.972;2023-07-13T13:20:26;3.38;;;0.82;;
54193;SDS011;40102;50.906;6.972;2023-07-13T13:22:52;3.95;;;0.80;;
54193;SDS011;40102;50.906;6.972;2023-07-13T13:25:17;2.72;;;0.70;;
54193;SDS011;40102;50.906;6.972;2023-07-13T13:27:44;5.38;;;1.00;;
54193;SDS011;40102;50.906;6.972;2023-07-13T13:30:11;2.65;;;0.70;;
54193;SDS011;40102;50.906;6.972;2023-07-13T13:32:39;3.38;;;0.85;;
54193;SDS011;40102;50.906;6.972;2023-07-13T13:35:05;3.90;;;1.00;;
54193;SDS011;40102;50.906;6.972;2023-07-13T13:37:37;1.52;;;0.73;;
54193;SDS011;40102;50.906;6.972;2023-07-13T13:40:02;2.90;;;0.90;;
54193;SDS011;40102;50.906;6.972;2023-07-13T13:42:38;4.05;;;1.10;;
54193;SDS011;40102;50.906;6.972;2023-07-13T13:45:04;4.07;;;1.08;;
54193;SDS011;40102;50.906;6.972;2023-07-13T13:47:31;3.60;;;0.85;;
54193;SDS011;40102;50.906;6.972;2023-07-13T13:49:58;3.28;;;0.95;;
54193;SDS011;40102;50.906;6.972;2023-07-13T13:52:23;3.40;;;0.80;;
54193;SDS011;40102;50.906;6.972;2023-07-13T13:54:51;3.25;;;0.85;;
54193;SDS011;40102;50.906;6.972;2023-07-13T13:57:22;3.35;;;0.90;;
54193;SDS011;40102;50.906;6.972;2023-07-13T13:59:49;3.20;;;0.80;;
54193;SDS011;40102;50.906;6.972;2023-07-13T14:02:24;3.50;;;0.88;;
54193;SDS011;40102;50.906;6.972;2023-07-13T14:04:56;6.57;;;1.40;;
54193;SDS011;40102;50.906;6.972;2023-07-13T14:07:24;3.13;;;0.80;;
54193;SDS011;40102;50.906;6.972;2023-07-13T14:09:52;3.40;;;0.88;;
54193;SDS011;40102;50.906;6.972;2023-07-13T14:12:19;4.63;;;0.88;;
54193;SDS011;40102;50.906;6.972;2023-07-13T14:14:45;3.25;;;1.13;;
54193;SDS011;40102;50.906;6.972;2023-07-13T14:17:28;3.42;;;0.80;;
54193;SDS011;40102;50.906;6.972;2023-07-13T14:19:55;2.53;;;0.90;;
54193;SDS011;40102;50.906;6.972;2023-07-13T14:22:26;4.43;;;0.70;;
54193;SDS011;40102;50.906;6.972;2023-07-13T14:24:53;6.45;;;0.90;;
54193;SDS011;40102;50.906;6.972;2023-07-13T14:27:19;6.68;;;1.00;;
54193;SDS011;40102;50.906;6.972;2023-07-13T14:29:45;3.72;;;0.90;;
54193;SDS011;40102;50.906;6.972;2023-07-13T14:32:11;1.55;;;0.80;;
54193;SDS011;40102;50.906;6.972;2023-07-13T14:34:37;2.78;;;0.80;;
54193;SDS011;40102;50.906;6.972;2023-07-13T14:37:03;2.45;;;0.73;;
54193;SDS011;40102;50.906;6.972;2023-07-13T14:39:30;1.65;;;0.70;;
54193;SDS011;40102;50.906;6.972;2023-07-13T14:41:56;1.95;;;0.70;;
54193;SDS011;40102;50.906;6.972;2023-07-13T14:44:27;3.67;;;0.90;;
54193;SDS011;40102;50.906;6.972;2023-07-13T14:46:56;2.90;;;0.90;;
54193;SDS011;40102;50.906;6.972;2023-07-13T14:49:30;2.08;;;0.90;;
54193;SDS011;40102;50.906;6.972;2023-07-13T14:52:05;4.13;;;0.90;;
54193;SDS011;40102;50.906;6.972;2023-07-13T14:54:35;4.70;;;1.23;;
54193;SDS011;40102;50.906;6.972;2023-07-13T14:57:07;2.28;;;0.90;;
54193;SDS011;40102;50.906;6.972;2023-07-13T14:59:41;2.03;;;0.70;;
54193;SDS011;40102;50.906;6.972;2023-07-13T15:02:14;1.80;;;0.70;;
54193;SDS011;40102;50.906;6.972;2023-07-13T15:04:49;3.87;;;1.10;;
54193;SDS011;40102;50.906;6.972;2023-07-13T15:07:14;4.10;;;1.07;;
54193;SDS011;40102;50.906;6.972;2023-07-13T15:09:42;1.92;;;0.90;;
54193;SDS011;40102;50.906;6.972;2023-07-13T15:12:08;1.10;;;0.80;;
54193;SDS011;40102;50.906;6.972;2023-07-13T15:14:34;2.35;;;0.60;;
54193;SDS011;40102;50.906;6.972;2023-07-13T15:16:59;3.53;;;0.80;;
54193;SDS011;40102;50.906;6.972;2023-07-13T15:19:25;2.78;;;1.00;;
54193;SDS011;40102;50.906;6.972;2023-07-13T15:21:51;3.15;;;0.77;;
54193;SDS011;40102;50.906;6.972;2023-07-13T15:24:19;2.58;;;0.80;;
54193;SDS011;40102;50.906;6.972;2023-07-13T15:26:45;3.53;;;0.60;;
54193;SDS011;40102;50.906;6.972;2023-07-13T15:29:13;3.20;;;1.02;;
54193;SDS011;40102;50.906;6.972;2023-07-13T15:31:44;1.95;;;0.90;;
54193;SDS011;40102;50.906;6.972;2023-07-13T15:34:11;2.53;;;0.90;;